createdAt,value
2017-05-06T00:02:18.818Z,100919.84
2017-05-06T00:04:49.702Z,100906.36
2017-05-06T00:07:20.503Z,100901.05
2017-05-06T00:09:52.284Z,100900.21
2017-05-06T00:12:24.032Z,100899.44
2017-05-06T00:14:55.852Z,100902.11
2017-05-06T00:17:26.720Z,100893.38
2017-05-06T00:19:57.500Z,100894.80
2017-05-06T00:22:28.419Z,100894.34
2017-05-06T00:24:59.207Z,100889.88
2017-05-06T00:27:30.252Z,100892.19
2017-05-06T00:30:01.267Z,100886.95
2017-05-06T00:32:32.172Z,100878.75
2017-05-06T00:35:03.822Z,100876.69
2017-05-06T00:37:35.583Z,100871.96
2017-05-06T00:40:06.415Z,100871.37
2017-05-06T00:42:37.284Z,100870.81
2017-05-06T00:45:08.092Z,100869.33
2017-05-06T00:47:38.980Z,100871.81
2017-05-06T00:50:09.760Z,100871.56
2017-05-06T00:52:40.779Z,100868.08
2017-05-06T00:55:11.564Z,100860.59
2017-05-06T00:57:42.462Z,100862.09
2017-05-06T01:00:13.348Z,100851.05
2017-05-06T01:02:44.201Z,100854.21
2017-05-06T01:05:15.096Z,100851.72
2017-05-06T01:07:45.913Z,100851.17
2017-05-06T01:10:17.663Z,100841.59
2017-05-06T01:12:49.434Z,100843.67
2017-05-06T01:15:20.213Z,100841.50
2017-05-06T01:17:51.187Z,100842.25
2017-05-06T01:20:22.475Z,100837.34
2017-05-06T01:22:53.362Z,100836.86
2017-05-06T01:25:24.235Z,100838.64
2017-05-06T01:27:55.118Z,100835.59
2017-05-06T01:30:25.564Z,100828.14
2017-05-06T01:32:56.433Z,100825.44
2017-05-06T01:35:27.213Z,100832.44
2017-05-06T01:37:58.068Z,100827.96
2017-05-06T01:40:28.851Z,100834.36
2017-05-06T01:42:59.679Z,100833.05
2017-05-06T01:45:30.520Z,100831.34
2017-05-06T01:48:01.296Z,100828.24
2017-05-06T01:50:32.187Z,100823.41
2017-05-06T01:53:03.067Z,100822.02
2017-05-06T01:55:33.923Z,100813.20
2017-05-06T01:58:04.737Z,100811.91
2017-05-06T02:00:35.646Z,100814.39
2017-05-06T02:03:06.435Z,100807.88
2017-05-06T02:05:37.369Z,100806.56
2017-05-06T02:08:08.146Z,100798.78
2017-05-06T02:10:38.979Z,100795.12
2017-05-06T02:13:10.682Z,100795.09
2017-05-06T02:15:41.551Z,100790.37
2017-05-06T02:18:12.341Z,100790.31
2017-05-06T02:20:43.169Z,100795.40
2017-05-06T02:23:14.629Z,100786.55
2017-05-06T02:25:45.506Z,100789.09
2017-05-06T02:28:16.376Z,100792.59
2017-05-06T02:30:47.207Z,100778.67
2017-05-06T02:33:18.031Z,100782.98
2017-05-06T02:35:48.872Z,100779.94
2017-05-06T02:38:19.653Z,100779.81
2017-05-06T02:40:50.520Z,100767.25
2017-05-06T02:43:21.427Z,100771.95
2017-05-06T02:45:52.346Z,100771.07
2017-05-06T02:48:24.272Z,100765.80
2017-05-06T02:50:55.111Z,100771.84
2017-05-06T02:53:26.014Z,100770.96
2017-05-06T02:55:56.848Z,100767.89
2017-05-06T02:58:27.639Z,100757.39
2017-05-06T03:00:58.462Z,100759.52
2017-05-06T03:03:29.263Z,100768.88
2017-05-06T03:06:00.127Z,100770.58
2017-05-06T03:08:30.903Z,100770.06
2017-05-06T03:11:01.764Z,100773.14
2017-05-06T03:13:32.690Z,100773.22
2017-05-06T03:16:03.525Z,100778.38
2017-05-06T03:18:34.648Z,100780.41
2017-05-06T03:21:05.592Z,100769.15
2017-05-06T03:23:36.379Z,100768.48
2017-05-06T03:26:07.216Z,100770.79
2017-05-06T03:28:38.050Z,100771.41
2017-05-06T03:31:08.892Z,100763.69
2017-05-06T03:33:39.659Z,100757.91
2017-05-06T03:36:10.499Z,100767.92
2017-05-06T03:38:41.284Z,100765.52
2017-05-06T03:41:12.118Z,100757.13
2017-05-06T03:43:43.022Z,100757.09
2017-05-06T03:46:13.871Z,100757.17
2017-05-06T03:48:44.653Z,100755.59
2017-05-06T03:51:15.529Z,100758.66
2017-05-06T03:53:46.387Z,100752.63
2017-05-06T03:56:17.256Z,100752.25
2017-05-06T03:58:48.036Z,100753.61
2017-05-06T04:01:18.888Z,100760.24
2017-05-06T04:03:49.817Z,100751.61
2017-05-06T04:06:20.683Z,100746.59
2017-05-06T04:08:51.594Z,100746.81
2017-05-06T04:11:22.427Z,100746.23
2017-05-06T04:13:53.327Z,100752.36
2017-05-06T04:16:23.984Z,100751.23
2017-05-06T04:18:54.840Z,100751.03
2017-05-06T04:21:25.823Z,100752.09
2017-05-06T04:23:56.659Z,100755.27
2017-05-06T04:26:27.446Z,100755.34
2017-05-06T04:28:58.279Z,100759.83
2017-05-06T04:31:29.135Z,100755.86
2017-05-06T04:33:59.920Z,100757.38
2017-05-06T04:36:30.792Z,100755.87
2017-05-06T04:39:01.902Z,100754.19
2017-05-06T04:41:32.778Z,100748.48
2017-05-06T04:44:05.914Z,100750.65
2017-05-06T04:46:36.755Z,100742.78
2017-05-06T04:49:07.542Z,100745.02
2017-05-06T04:51:38.364Z,100741.73
2017-05-06T04:54:09.279Z,100740.89
2017-05-06T04:56:40.114Z,100735.30
2017-05-06T04:59:10.949Z,100738.89
2017-05-06T05:01:42.341Z,100731.00
2017-05-06T05:04:14.720Z,100730.19
2017-05-06T05:06:47.584Z,100721.00
2017-05-06T05:09:19.755Z,100723.62
2017-05-06T05:11:52.923Z,100726.19
2017-05-06T05:14:25.094Z,100723.88
2017-05-06T05:16:56.669Z,100720.81
2017-05-06T05:19:27.539Z,100727.50
2017-05-06T05:22:00.198Z,100723.73
2017-05-06T05:24:32.869Z,100720.95
2017-05-06T05:27:04.120Z,100718.03
2017-05-06T05:29:35.657Z,100714.08
2017-05-06T05:32:09.056Z,100711.18
2017-05-06T05:34:42.226Z,100711.37
2017-05-06T05:37:13.631Z,100712.03
2017-05-06T05:39:45.538Z,100711.59
2017-05-06T05:42:17.511Z,100713.09
2017-05-06T05:44:49.053Z,100705.64
2017-05-06T05:47:21.302Z,100706.05
2017-05-06T05:49:54.389Z,100691.94
2017-05-06T05:52:26.499Z,100701.52
2017-05-06T05:54:57.347Z,100697.17
2017-05-06T05:57:28.184Z,100691.59
2017-05-06T05:59:58.979Z,100699.22
2017-05-06T06:02:29.828Z,100697.46
2017-05-06T06:05:00.695Z,100700.73
2017-05-06T06:07:31.473Z,100695.58
2017-05-06T06:10:02.339Z,100692.91
2017-05-06T06:12:33.203Z,100692.17
2017-05-06T06:15:04.043Z,100698.30
2017-05-06T06:17:34.819Z,100695.52
2017-05-06T06:20:05.773Z,100694.94
2017-05-06T06:22:36.640Z,100695.03
2017-05-06T06:25:07.457Z,100696.41
2017-05-06T06:27:38.313Z,100703.45
2017-05-06T06:30:09.157Z,100701.73
2017-05-06T06:32:39.984Z,100693.27
2017-05-06T06:35:10.836Z,100703.14
2017-05-06T06:37:41.732Z,100697.98
2017-05-06T06:40:12.558Z,100698.37
2017-05-06T06:42:43.407Z,100689.23
2017-05-06T06:45:14.034Z,100692.58
2017-05-06T06:47:45.006Z,100684.89
2017-05-06T06:50:15.786Z,100681.63
2017-05-06T06:52:46.647Z,100687.92
2017-05-06T06:55:17.504Z,100681.44
2017-05-06T06:57:48.358Z,100687.04
2017-05-06T07:00:19.171Z,100682.75
2017-05-06T07:02:50.040Z,100675.38
2017-05-06T07:05:20.816Z,100677.22
2017-05-06T07:07:51.672Z,100678.02
2017-05-06T07:10:22.571Z,100676.77
2017-05-06T07:12:53.483Z,100669.55
2017-05-06T07:15:24.506Z,100675.25
2017-05-06T07:17:55.347Z,100669.59
2017-05-06T07:20:26.201Z,100673.61
2017-05-06T07:22:57.111Z,100670.19
2017-05-06T07:25:27.910Z,100672.95
2017-05-06T07:27:58.796Z,100671.09
2017-05-06T07:30:29.592Z,100664.37
2017-05-06T07:33:00.438Z,100661.57
2017-05-06T07:35:31.300Z,100661.70
2017-05-06T07:38:02.131Z,100658.22
2017-05-06T07:40:32.988Z,100655.66
2017-05-06T07:43:03.786Z,100659.44
2017-05-06T07:45:34.679Z,100656.73
2017-05-06T07:48:05.515Z,100658.06
2017-05-06T07:50:36.429Z,100655.72
2017-05-06T07:53:07.215Z,100653.55
2017-05-06T07:55:38.127Z,100647.03
2017-05-06T07:58:08.929Z,100646.20
2017-05-06T08:00:39.787Z,100645.20
2017-05-06T08:03:10.584Z,100633.87
2017-05-06T08:05:41.419Z,100644.72
2017-05-06T08:08:12.256Z,100639.03
2017-05-06T08:10:43.227Z,100637.66
2017-05-06T08:13:14.019Z,100634.52
2017-05-06T08:15:44.915Z,100638.69
2017-05-06T08:18:15.718Z,100638.06
2017-05-06T08:20:48.169Z,100633.16
2017-05-06T08:23:18.952Z,100632.53
2017-05-06T08:25:49.815Z,100626.45
2017-05-06T08:28:20.615Z,100624.55
2017-05-06T08:30:51.688Z,100623.16
2017-05-06T08:33:22.559Z,100621.06
2017-05-06T08:35:53.459Z,100617.23
2017-05-06T08:38:24.291Z,100604.73
2017-05-06T08:40:55.732Z,100607.88
2017-05-06T08:43:27.851Z,100610.19
2017-05-06T08:45:58.681Z,100601.61
2017-05-06T08:48:29.464Z,100607.11
2017-05-06T08:51:00.332Z,100600.53
2017-05-06T08:53:31.116Z,100595.98
2017-05-06T08:56:02.097Z,100601.87
2017-05-06T08:58:32.912Z,100598.48
2017-05-06T09:01:03.752Z,100596.91
2017-05-06T09:03:34.552Z,100592.48
2017-05-06T09:06:05.439Z,100597.13
2017-05-06T09:08:36.276Z,100593.34
2017-05-06T09:11:07.149Z,100597.17
2017-05-06T09:13:37.924Z,100597.81
2017-05-06T09:16:08.763Z,100594.55
2017-05-06T09:18:39.540Z,100592.32
2017-05-06T09:21:10.375Z,100590.28
2017-05-06T09:23:41.188Z,100585.16
2017-05-06T09:26:12.051Z,100583.12
2017-05-06T09:28:42.824Z,100579.81
2017-05-06T09:31:13.669Z,100585.02
2017-05-06T09:33:44.516Z,100575.84
2017-05-06T09:36:15.284Z,100580.75
2017-05-06T09:38:46.124Z,100571.32
2017-05-06T09:41:16.906Z,100568.69
2017-05-06T09:43:47.831Z,100575.02
2017-05-06T09:46:18.700Z,100572.00
2017-05-06T09:48:49.558Z,100570.52
2017-05-06T09:51:20.361Z,100564.62
2017-05-06T09:53:51.233Z,100563.02
2017-05-06T09:56:22.114Z,100556.85
2017-05-06T09:58:53.048Z,100550.62
2017-05-06T10:01:23.870Z,100549.86
2017-05-06T10:03:55.676Z,100543.72
2017-05-06T10:06:26.476Z,100538.55
2017-05-06T10:08:57.300Z,100530.30
2017-05-06T10:11:28.124Z,100527.55
2017-05-06T10:13:59.349Z,100524.69
2017-05-06T10:16:30.183Z,100522.88
2017-05-06T10:19:01.046Z,100520.14
2017-05-06T10:21:31.940Z,100516.94
2017-05-06T10:24:02.724Z,100522.70
2017-05-06T10:26:33.572Z,100510.25
2017-05-06T10:29:04.363Z,100504.67
2017-05-06T10:31:35.237Z,100501.70
2017-05-06T10:34:06.139Z,100499.88
2017-05-06T10:36:37.036Z,100490.82
2017-05-06T10:39:07.887Z,100497.61
2017-05-06T10:41:38.692Z,100493.58
2017-05-06T10:44:09.531Z,100486.72
2017-05-06T10:46:40.332Z,100487.36
2017-05-06T10:49:11.187Z,100471.75
2017-05-06T10:51:42.020Z,100483.09
2017-05-06T10:54:12.848Z,100477.75
2017-05-06T10:56:43.772Z,100478.17
2017-05-06T10:59:14.552Z,100470.95
2017-05-06T11:01:45.419Z,100476.03
2017-05-06T11:04:16.211Z,100473.92
2017-05-06T11:06:47.036Z,100462.70
2017-05-06T11:09:17.849Z,100461.07
2017-05-06T11:11:48.687Z,100456.84
2017-05-06T11:14:19.463Z,100447.46
2017-05-06T11:16:50.358Z,100432.71
2017-05-06T11:19:21.146Z,100429.98
2017-05-06T11:21:52.076Z,100422.02
2017-05-06T11:24:22.856Z,100419.95
2017-05-06T11:26:53.813Z,100408.91
2017-05-06T11:29:24.653Z,100402.88
2017-05-06T11:31:55.485Z,100394.55
2017-05-06T11:34:26.303Z,100390.55
2017-05-06T11:36:56.812Z,100381.03
2017-05-06T11:39:27.600Z,100366.76
2017-05-06T11:41:58.455Z,100374.38
2017-05-06T11:44:29.363Z,100371.64
2017-05-06T11:47:00.260Z,100365.28
2017-05-06T11:49:31.063Z,100363.03
2017-05-06T11:52:01.924Z,100360.67
2017-05-06T11:54:32.733Z,100355.86
2017-05-06T11:57:03.639Z,100344.37
2017-05-06T11:59:34.466Z,100349.83
2017-05-06T12:02:05.342Z,100343.23
2017-05-06T12:04:36.154Z,100331.00
2017-05-06T12:07:07.025Z,100330.81
2017-05-06T12:09:37.675Z,100321.70
2017-05-06T12:12:08.544Z,100321.53
2017-05-06T12:14:39.356Z,100307.09
2017-05-06T12:17:10.247Z,100310.41
2017-05-06T12:19:41.072Z,100301.33
2017-05-06T12:22:11.920Z,100301.75
2017-05-06T12:24:42.730Z,100303.72
2017-05-06T12:27:14.339Z,100294.40
2017-05-06T12:29:45.186Z,100291.69
2017-05-06T12:32:16.042Z,100297.05
2017-05-06T12:34:46.852Z,100299.29
2017-05-06T12:37:17.723Z,100284.02
2017-05-06T12:39:48.532Z,100290.45
2017-05-06T12:42:19.355Z,100283.23
2017-05-06T12:44:50.152Z,100287.79
2017-05-06T12:47:21.052Z,100271.09
2017-05-06T12:49:51.848Z,100273.47
2017-05-06T12:52:22.703Z,100259.52
2017-05-06T12:54:53.489Z,100258.95
2017-05-06T12:57:24.402Z,100262.80
2017-05-06T12:59:55.254Z,100254.09
2017-05-06T13:02:26.110Z,100255.28
2017-05-06T13:04:56.892Z,100240.73
2017-05-06T13:07:27.864Z,100245.42
2017-05-06T13:09:58.644Z,100252.98
2017-05-06T13:12:29.470Z,100254.34
2017-05-06T13:15:00.262Z,100251.09
2017-05-06T13:17:31.103Z,100247.34
2017-05-06T13:20:01.897Z,100241.70
2017-05-06T13:22:32.743Z,100234.11
2017-05-06T13:25:03.573Z,100232.53
2017-05-06T13:27:34.420Z,100227.80
2017-05-06T13:30:05.196Z,100220.83
2017-05-06T13:32:36.025Z,100221.20
2017-05-06T13:35:06.840Z,100211.31
2017-05-06T13:37:37.748Z,100204.11
2017-05-06T13:40:08.563Z,100199.63
2017-05-06T13:42:39.395Z,100198.09
2017-05-06T13:45:10.165Z,100191.42
2017-05-06T13:47:41.000Z,100182.23
2017-05-06T13:50:11.792Z,100191.42
2017-05-06T13:52:42.620Z,100191.17
2017-05-06T13:55:13.493Z,100185.30
2017-05-06T13:57:44.402Z,100178.20
2017-05-06T14:00:15.281Z,100180.94
2017-05-06T14:02:46.702Z,100173.66
2017-05-06T14:05:17.558Z,100170.96
2017-05-06T14:07:48.430Z,100167.78
2017-05-06T14:10:19.402Z,100167.63
2017-05-06T14:12:50.178Z,100167.02
2017-05-06T14:15:21.744Z,100165.23
2017-05-06T14:17:52.522Z,100159.84
2017-05-06T14:20:23.457Z,100163.19
2017-05-06T14:22:54.265Z,100165.14
2017-05-06T14:25:25.171Z,100162.36
2017-05-06T14:27:55.967Z,100165.41
2017-05-06T14:30:26.812Z,100162.46
2017-05-06T14:32:57.597Z,100159.50
2017-05-06T14:35:28.422Z,100163.09
2017-05-06T14:37:59.203Z,100154.77
2017-05-06T14:40:30.119Z,100148.91
2017-05-06T14:43:00.955Z,100151.67
2017-05-06T14:45:31.799Z,100151.42
2017-05-06T14:48:02.584Z,100154.02
2017-05-06T14:50:33.427Z,100153.64
2017-05-06T14:53:04.259Z,100151.52
2017-05-06T14:55:35.104Z,100152.50
2017-05-06T14:58:05.694Z,100143.27
2017-05-06T15:00:36.150Z,100139.02
2017-05-06T15:03:06.961Z,100135.91
2017-05-06T15:05:37.809Z,100131.36
2017-05-06T15:08:08.615Z,100131.14
2017-05-06T15:10:39.479Z,100131.79
2017-05-06T15:13:10.268Z,100127.87
2017-05-06T15:15:41.124Z,100128.53
2017-05-06T15:18:11.898Z,100130.88
2017-05-06T15:20:42.752Z,100124.84
2017-05-06T15:23:13.597Z,100123.27
2017-05-06T15:25:44.416Z,100120.89
2017-05-06T15:28:15.252Z,100114.75
2017-05-06T15:30:46.079Z,100109.03
2017-05-06T15:33:16.915Z,100104.03
2017-05-06T15:35:47.707Z,100101.97
2017-05-06T15:38:18.601Z,100100.22
2017-05-06T15:40:49.441Z,100093.69
2017-05-06T15:43:20.254Z,100100.49
2017-05-06T15:45:51.119Z,100098.04
2017-05-06T15:48:21.908Z,100095.09
2017-05-06T15:50:52.790Z,100094.59
2017-05-06T15:53:23.756Z,100090.91
2017-05-06T15:55:54.728Z,100089.58
2017-05-06T15:58:25.696Z,100096.53
2017-05-06T16:00:56.556Z,100097.27
2017-05-06T16:03:27.328Z,100095.63
2017-05-06T16:05:58.181Z,100097.34
2017-05-06T16:08:28.970Z,100079.33
2017-05-06T16:10:59.825Z,100074.83
2017-05-06T16:13:30.596Z,100070.02
2017-05-06T16:16:01.427Z,100077.30
2017-05-06T16:18:32.307Z,100073.28
2017-05-06T16:21:03.083Z,100074.70
2017-05-06T16:23:33.912Z,100067.41
2017-05-06T16:26:04.694Z,100066.59
2017-05-06T16:28:35.531Z,100069.06
2017-05-06T16:31:06.407Z,100069.11
2017-05-06T16:33:37.259Z,100069.77
2017-05-06T16:36:08.028Z,100071.38
2017-05-06T16:38:38.876Z,100069.60
2017-05-06T16:41:09.662Z,100070.86
2017-05-06T16:43:40.885Z,100071.34
2017-05-06T16:46:14.194Z,100070.89
2017-05-06T16:48:46.282Z,100069.93
2017-05-06T16:51:17.537Z,100071.81
2017-05-06T16:53:49.518Z,100075.73
2017-05-06T16:56:21.164Z,100079.93
2017-05-06T16:58:53.875Z,100075.28
2017-05-06T17:01:25.927Z,100070.02
2017-05-06T17:03:56.815Z,100071.29
2017-05-06T17:06:27.602Z,100072.94
2017-05-06T17:08:58.506Z,100065.80
2017-05-06T17:11:29.295Z,100062.75
2017-05-06T17:14:00.136Z,100061.41
2017-05-06T17:16:30.975Z,100058.64
2017-05-06T17:19:01.818Z,100055.71
2017-05-06T17:21:33.047Z,100062.08
2017-05-06T17:24:04.703Z,100062.63
2017-05-06T17:26:35.562Z,100064.95
2017-05-06T17:29:07.961Z,100061.61
2017-05-06T17:31:40.738Z,100061.63
2017-05-06T17:34:12.613Z,100062.41
2017-05-06T17:36:44.480Z,100057.13
2017-05-06T17:39:15.901Z,100058.73
2017-05-06T17:41:49.149Z,100058.31
2017-05-06T17:44:22.079Z,100061.81
2017-05-06T17:46:54.574Z,100066.05
2017-05-06T17:49:25.869Z,100064.58
2017-05-06T17:51:58.868Z,100064.53
2017-05-06T17:54:34.393Z,100066.59
2017-05-06T17:57:08.938Z,100059.55
2017-05-06T17:59:41.290Z,100057.24
2017-05-06T18:02:13.044Z,100053.28
2017-05-06T18:04:43.893Z,100053.22
2017-05-06T18:07:14.711Z,100051.65
2017-05-06T18:09:45.567Z,100046.36
2017-05-06T18:12:16.371Z,100048.58
2017-05-06T18:14:47.320Z,100046.36
2017-05-06T18:17:18.142Z,100051.10
2017-05-06T18:19:49.824Z,100063.68
2017-05-06T18:22:20.605Z,100062.36
2017-05-06T18:24:51.490Z,100062.83
2017-05-06T18:27:22.363Z,100063.36
2017-05-06T18:29:53.338Z,100060.93
2017-05-06T18:32:24.152Z,100060.33
2017-05-06T18:34:54.996Z,100064.06
2017-05-06T18:37:25.834Z,100062.89
2017-05-06T18:39:56.767Z,100068.50
2017-05-06T18:42:28.144Z,100067.16
2017-05-06T18:44:59.967Z,100068.83
2017-05-06T18:47:30.801Z,100070.78
2017-05-06T18:50:01.719Z,100071.56
2017-05-06T18:52:34.636Z,100078.59
2017-05-06T18:55:05.805Z,100077.84
2017-05-06T18:57:37.633Z,100078.01
2017-05-06T19:00:08.532Z,100075.00
2017-05-06T19:02:41.949Z,100078.09
2017-05-06T19:05:13.103Z,100076.51
2017-05-06T19:07:44.019Z,100075.97
2017-05-06T19:10:14.828Z,100075.97
2017-05-06T19:12:48.666Z,100082.36
2017-05-06T19:15:21.629Z,100085.91
2017-05-06T19:17:52.715Z,100080.38
2017-05-06T19:20:23.574Z,100082.24
2017-05-06T19:22:54.739Z,100083.34
2017-05-06T19:25:25.841Z,100085.66
2017-05-06T19:27:57.063Z,100082.64
2017-05-06T19:30:28.221Z,100087.02
2017-05-06T19:32:59.566Z,100080.94
2017-05-06T19:35:30.653Z,100077.05
2017-05-06T19:38:01.869Z,100084.16
2017-05-06T19:40:32.935Z,100078.84
2017-05-06T19:43:04.165Z,100083.00
2017-05-06T19:45:35.190Z,100088.44
2017-05-06T19:48:06.144Z,100085.84
2017-05-06T19:50:37.231Z,100080.64
2017-05-06T19:53:08.154Z,100080.95
2017-05-06T19:55:39.335Z,100085.06
2017-05-06T19:58:10.247Z,100078.73
2017-05-06T20:00:41.332Z,100087.63
2017-05-06T20:03:12.364Z,100080.41
2017-05-06T20:05:43.204Z,100084.15
2017-05-06T20:08:14.336Z,100076.55
2017-05-06T20:10:45.519Z,100078.87
2017-05-06T20:13:16.389Z,100082.01
2017-05-06T20:15:47.644Z,100086.78
2017-05-06T20:18:18.597Z,100082.39
2017-05-06T20:20:49.652Z,100084.03
2017-05-06T20:23:20.826Z,100081.70
2017-05-06T20:25:51.852Z,100077.39
2017-05-06T20:28:22.913Z,100083.14
2017-05-06T20:30:54.043Z,100092.94
2017-05-06T20:33:25.001Z,100094.96
2017-05-06T20:35:56.219Z,100085.64
2017-05-06T20:38:27.195Z,100092.64
2017-05-06T20:40:58.280Z,100094.03
2017-05-06T20:43:29.421Z,100099.92
2017-05-06T20:46:00.355Z,100105.05
2017-05-06T20:48:31.197Z,100095.20
2017-05-06T20:51:02.028Z,100092.83
2017-05-06T20:53:32.885Z,100092.84
2017-05-06T20:56:03.673Z,100091.99
2017-05-06T20:58:34.523Z,100088.20
2017-05-06T21:01:05.405Z,100088.31
2017-05-06T21:03:36.268Z,100088.70
2017-05-06T21:06:07.101Z,100096.28
2017-05-06T21:08:37.961Z,100094.41
2017-05-06T21:11:08.744Z,100101.42
2017-05-06T21:13:39.571Z,100099.86
2017-05-06T21:16:10.347Z,100103.36
2017-05-06T21:18:41.219Z,100100.90
2017-05-06T21:21:12.006Z,100101.03
2017-05-06T21:23:42.860Z,100099.05
2017-05-06T21:26:13.639Z,100100.42
2017-05-06T21:28:44.587Z,100097.50
2017-05-06T21:31:15.406Z,100102.50
2017-05-06T21:33:46.260Z,100101.91
2017-05-06T21:36:17.057Z,100102.94
2017-05-06T21:38:47.900Z,100101.80
2017-05-06T21:41:18.696Z,100104.54
2017-05-06T21:43:49.553Z,100102.98
2017-05-06T21:46:20.416Z,100108.06
2017-05-06T21:48:51.199Z,100107.44
2017-05-06T21:51:22.046Z,100110.17
2017-05-06T21:53:52.635Z,100111.70
2017-05-06T21:56:23.491Z,100116.64
2017-05-06T21:58:54.351Z,100115.14
2017-05-06T22:01:25.287Z,100116.97
2017-05-06T22:03:56.168Z,100122.53
2017-05-06T22:06:26.960Z,100116.49
2017-05-06T22:08:57.907Z,100118.84
2017-05-06T22:11:28.684Z,100121.59
2017-05-06T22:13:59.581Z,100123.05
2017-05-06T22:16:30.364Z,100118.64
2017-05-06T22:19:01.204Z,100117.99
2017-05-06T22:21:31.984Z,100123.91
2017-05-06T22:24:02.837Z,100122.11
2017-05-06T22:26:33.650Z,100123.20
2017-05-06T22:29:04.490Z,100122.25
2017-05-06T22:31:35.104Z,100121.34
2017-05-06T22:34:05.944Z,100122.16
2017-05-06T22:36:36.821Z,100122.09
2017-05-06T22:39:07.715Z,100126.47
2017-05-06T22:41:38.525Z,100125.15
2017-05-06T22:44:09.369Z,100125.58
2017-05-06T22:46:40.184Z,100128.99
2017-05-06T22:49:11.073Z,100132.02
2017-05-06T22:51:42.560Z,100137.01
2017-05-06T22:54:13.488Z,100133.69
2017-05-06T22:56:44.348Z,100135.68
2017-05-06T22:59:15.135Z,100133.55
2017-05-06T23:01:46.319Z,100127.89
2017-05-06T23:04:17.127Z,100131.80
2017-05-06T23:06:48.015Z,100133.16
2017-05-06T23:09:18.790Z,100130.56
2017-05-06T23:11:49.672Z,100135.02
2017-05-06T23:14:20.463Z,100129.17
2017-05-06T23:16:51.319Z,100134.92
2017-05-06T23:19:22.107Z,100127.31
2017-05-06T23:21:52.976Z,100128.84
2017-05-06T23:24:23.825Z,100132.45
2017-05-06T23:26:54.737Z,100132.50
2017-05-06T23:29:25.635Z,100133.81
2017-05-06T23:31:56.522Z,100130.84
2017-05-06T23:34:27.431Z,100131.94
2017-05-06T23:36:58.271Z,100130.62
2017-05-06T23:39:29.056Z,100132.88
2017-05-06T23:41:59.916Z,100132.09
2017-05-06T23:44:30.719Z,100131.63
2017-05-06T23:47:01.582Z,100132.08
2017-05-06T23:49:32.507Z,100142.40
2017-05-06T23:52:03.288Z,100144.10
2017-05-06T23:54:35.022Z,100139.70
2017-05-06T23:57:05.809Z,100136.86
2017-05-06T23:59:37.572Z,100140.81
